Ana Sayfa
METAR-TAF:

METAR-TAF

Havaalanları :

Siem Reap Uluslararası Havalimanı

Siem Reap, Kamboçya

Enlem: 13-22N, Boylam: 103-51E, yükseklik: 15 m

Güncel hava durumu gözlemi

Rapor saat 21:30 UTC de 23 dakika önce yapıldı.
Rüzgar doğu/kuzeydoğudan 4 kt
Sıcaklık 22°C
Nem 78%
Basınç 1010 hPa
Görüş mesafesi: 9000 m
1700 ft yükseklikte az bulutlu

METAR: VDSR 242130Z 07004KT 9000 FEW017 22/18 Q1010

Saat: 04:53 (21:53 UTC)

Tahmin

Rapor saat 17:00 UTC de 4 saat ve 53 dakika önce yapıldı.
Ayın 24'si saat 18 UTC'den ayın 25'si saat 12 UTC'ye kadar geçerli Tahmin
Rüzgar batı/güneybatıdan 5 kt
Görüş mesafesi 10 km veya daha fazla
1700 ft yükseklikte parçalı bulutlu

TAF: VDSR 241700Z 2418/2512 24005KT 9999 SCT017

4.000'den fazla havaalanı için hava durumu gözlemleri ve tahminleri (METAR ve TAF raporları).

Kullanılabilir istasyonlar harita üzerinde sarı ve kırmızı noktalarla gösterilir.

İstasyonun adını görmek için fareyi noktanın üzerinde gezdirin.

Sonrasında hava gözlem ve tahminlerini görmek için tıklayın.

Haritayı değiştirmek için: yaklaştırmak için siyah artı işaretli yeşil düğmeye ve uzaklaştırmak için de eksi işaretli düğmeye hızla tıklayın; bitişik haritalar için yeşil okları kullanın.


METAR-TAF: